Bryant, Indiana
Current Conditions -  °F | °C
As of 7:53 AM on Tuesday 21 Oct 2014 (Local Time) from KMIE Reporting Station
Overcast Overcast  
Wind Chill: 43°   Ceiling: 5000
Heat Index: 48°   Visibility: 10mi
Dew Point: 43°   Wind: 10mph
Humidity: 83%   Direction: 330°NNW
Pressure: 30"   Gusts: NA
Location:  40.53°N, 84.96°W
Report Text: KMIE 211153Z 33009KT 10SM OVC050 09/06 A3000 RMK AO2 SLP158 70014 T00890061 10100 20089 51015
Loading
Personal Weather Stations






























Interactive Weather Map
Tropical Storm Tracking
New forecast layout! Learn more

10-Day Weather Forecast

Advertisements
Track Severe Weather on mobile